Time;durP1;ratioP1;P1;durP2;ratioP2;P2;SDS_P1;SDS_P2;PMS_P1;PMS_P2;Temp;Humidity;BMP_temperature;BMP_pressure;BME280_temperature;BME280_humidity;BME280_pressure;Samples;Min_cycle;Max_cycle;Signal;HPM_P1;HPM_P2
2023/04/02 00:02:21;;;;;;;5.43;1.13;;;;;;;18.38;47.97;102060.75;4994800;28;20029;-47
2023/04/02 00:05:30;;;;;;;4.53;1.70;;;;;;;18.53;49.51;102057.59;4994700;28;20475;-45
2023/04/02 00:08:02;;;;;;;4.93;1.50;;;;;;;18.52;48.17;102054.06;5009231;28;20034;-45
2023/04/02 00:10:46;;;;;;;3.10;1.35;;;;;;;18.35;48.24;102058.47;4994594;28;20034;-46
2023/04/02 00:13:16;;;;;;;5.90;1.80;;;;;;;18.35;48.97;102053.06;4994609;28;20038;-46
2023/04/02 00:15:45;;;;;;;3.67;1.60;;;;;;;18.07;48.41;102050.91;4994936;28;20487;-46
2023/04/02 00:18:17;;;;;;;5.57;1.20;;;;;;;17.91;50.19;102041.50;4994276;28;20035;-49
2023/04/02 00:20:50;;;;;;;5.20;1.23;;;;;;;17.97;47.77;102043.28;4994875;28;20173;-44
2023/04/02 00:23:16;;;;;;;5.00;1.35;;;;;;;17.98;49.20;102039.53;4996413;28;20026;-46
2023/04/02 00:25:44;;;;;;;3.92;1.42;;;;;;;18.07;48.71;102032.75;4993857;28;20588;-47
2023/04/02 00:28:16;;;;;;;3.45;1.20;;;;;;;18.08;49.20;102039.81;4993693;28;20022;-47
2023/04/02 00:30:51;;;;;;;4.97;1.30;;;;;;;17.96;48.94;102044.34;4991193;28;20064;-46
2023/04/02 00:33:20;;;;;;;4.05;1.15;;;;;;;17.86;48.87;102039.44;5000270;28;20113;-48
2023/04/02 00:35:49;;;;;;;5.93;1.20;;;;;;;17.77;49.89;102048.94;5009594;28;20120;-45
2023/04/02 00:38:31;;;;;;;6.05;1.33;;;;;;;17.70;49.99;102040.00;5005411;28;20564;-46
2023/04/02 00:41:01;;;;;;;5.75;1.45;;;;;;;17.61;50.20;102052.19;5007469;28;20551;-47
2023/04/02 00:43:31;;;;;;;22.17;3.35;;;;;;;17.29;50.29;102035.22;4995883;28;20035;-46
2023/04/02 00:46:03;;;;;;;6.75;1.30;;;;;;;16.56;51.54;102039.22;5000674;28;20097;-47
2023/04/02 00:48:32;;;;;;;3.88;1.85;;;;;;;16.96;52.00;102038.19;4996057;28;20026;-45
2023/04/02 00:51:16;;;;;;;3.50;1.60;;;;;;;17.06;51.85;102033.94;5010989;28;20088;-45
2023/04/02 00:53:46;;;;;;;3.13;1.40;;;;;;;16.96;51.63;102035.47;4993905;28;20475;-46
2023/04/02 00:56:27;;;;;;;4.95;1.38;;;;;;;17.05;51.10;102037.69;5004714;28;20034;-44
2023/04/02 00:58:56;;;;;;;4.78;1.30;;;;;;;16.94;51.30;102030.28;4994810;28;20038;-46
2023/04/02 01:01:28;;;;;;;3.25;1.10;;;;;;;16.85;51.25;102032.41;5000474;28;20472;-44
2023/04/02 01:04:00;;;;;;;6.20;1.45;;;;;;;16.69;51.78;102029.38;4992839;28;20495;-44
2023/04/02 01:06:33;;;;;;;3.55;1.38;;;;;;;16.65;52.64;102028.97;4993026;28;20034;-43
2023/04/02 01:09:14;;;;;;;6.95;1.63;;;;;;;16.71;52.76;102030.88;4993231;28;20030;-48
2023/04/02 01:12:01;;;;;;;5.20;1.50;;;;;;;16.71;52.85;102028.16;4993201;28;20019;-46
2023/04/02 01:14:58;;;;;;;5.05;1.98;;;;;;;16.43;53.90;102031.16;5109553;27;20404;-44
2023/04/02 01:17:33;;;;;;;6.68;1.48;;;;;;;16.36;54.06;102023.09;5109162;28;20526;-44
2023/04/02 01:20:08;;;;;;;5.47;1.75;;;;;;;16.34;54.47;102019.81;5109579;28;20115;-44
2023/04/02 01:22:56;;;;;;;3.53;1.20;;;;;;;16.39;53.26;102016.47;5101499;28;20078;-44
2023/04/02 01:25:33;;;;;;;5.07;1.80;;;;;;;16.24;53.91;102013.19;5089160;28;20039;-47
2023/04/02 01:28:10;;;;;;;5.28;1.13;;;;;;;16.16;53.85;102016.13;5091631;28;20017;-47
2023/04/02 01:30:37;;;;;;;4.22;1.40;;;;;;;16.06;53.76;102011.19;5100573;28;20028;-46
2023/04/02 01:33:04;;;;;;;5.55;1.60;;;;;;;15.95;53.41;102012.69;5102557;28;20031;-45
2023/04/02 01:35:37;;;;;;;6.90;1.90;;;;;;;15.76;54.27;102019.78;5101064;28;20476;-46
2023/04/02 01:38:20;;;;;;;6.53;1.60;;;;;;;15.87;54.31;102007.50;5103869;28;20020;-44
2023/04/02 01:41:06;;;;;;;7.80;3.03;;;;;;;15.82;54.72;102007.31;5108418;28;20020;-46
2023/04/02 01:43:40;;;;;;;2.53;1.35;;;;;;;15.69;55.15;102005.50;5100414;28;20016;-44
2023/04/02 01:46:33;;;;;;;8.30;2.10;;;;;;;15.68;55.59;102008.41;5110560;28;20027;-43
2023/04/02 01:49:11;;;;;;;4.43;1.30;;;;;;;15.67;55.96;102009.47;5125293;27;20016;-46
2023/04/02 01:51:42;;;;;;;6.43;1.55;;;;;;;15.37;57.02;102011.75;5100341;28;20107;-45
2023/04/02 01:54:09;;;;;;;4.15;1.45;;;;;;;15.46;56.57;102005.09;5105050;28;20064;-45
2023/04/02 01:56:36;;;;;;;5.85;1.60;;;;;;;15.27;57.52;102006.78;5106629;28;20020;-45
2023/04/02 01:59:04;;;;;;;4.28;1.88;;;;;;;15.03;58.54;102017.16;5106899;28;20049;-44
2023/04/02 02:02:00;;;;;;;4.45;1.63;;;;;;;15.17;58.48;102018.00;5106099;28;20024;-46
2023/04/02 02:04:26;;;;;;;6.40;1.90;;;;;;;14.95;59.28;102011.97;5108736;28;20055;-44
2023/04/02 02:06:53;;;;;;;5.45;2.10;;;;;;;14.85;59.72;102014.22;5114566;27;20376;-43
2023/04/02 02:09:32;;;;;;;6.30;1.58;;;;;;;14.83;60.01;102015.50;5098449;28;20032;-45
2023/04/02 02:12:01;;;;;;;6.45;2.10;;;;;;;14.73;60.54;102013.19;5108535;28;20027;-44
2023/04/02 02:14:29;;;;;;;4.88;2.40;;;;;;;14.54;61.32;102012.09;5108274;28;20048;-44
2023/04/02 02:17:00;;;;;;;7.22;2.05;;;;;;;14.71;60.67;102002.63;5108547;28;20042;-45
2023/04/02 02:19:27;;;;;;;5.13;2.20;;;;;;;14.52;61.40;102012.31;5088240;28;20468;-44
2023/04/02 02:21:57;;;;;;;7.03;2.95;;;;;;;14.51;61.34;102007.97;5122387;28;20076;-44
2023/04/02 02:24:27;;;;;;;7.18;3.47;;;;;;;14.49;61.47;102001.97;5124725;27;20024;-44
2023/04/02 02:27:22;;;;;;;11.23;5.13;;;;;;;14.53;61.51;102011.28;5115138;28;20024;-44
2023/04/02 02:30:03;;;;;;;9.93;3.10;;;;;;;14.40;61.69;102018.47;5052273;28;20040;-44
2023/04/02 02:32:32;;;;;;;10.50;3.45;;;;;;;14.29;62.36;102011.78;5073127;28;20492;-44
2023/04/02 02:35:17;;;;;;;7.45;3.47;;;;;;;14.30;62.34;102007.25;5072893;28;20606;-46
2023/04/02 02:37:46;;;;;;;;;;;;;;;14.18;62.96;102015.06;5083057;28;20422;-45
2023/04/02 02:40:20;;;;;;;5.95;3.17;;;;;;;14.10;63.29;102015.22;5081774;28;19962;-48
2023/04/02 02:42:59;;;;;;;8.32;2.78;;;;;;;14.18;63.33;102020.47;5073756;28;20111;-45
2023/04/02 02:45:31;;;;;;;6.53;1.60;;;;;;;13.98;64.07;102018.50;5084033;28;20082;-48
2023/04/02 02:47:59;;;;;;;9.13;2.33;;;;;;;13.97;64.32;102019.53;5093904;28;20097;-44
2023/04/02 02:50:30;;;;;;;7.32;2.17;;;;;;;13.86;64.84;102024.66;5079937;28;20493;-46
2023/04/02 02:53:05;;;;;;;6.07;2.30;;;;;;;13.78;65.52;102024.81;5077014;28;20028;-44
2023/04/02 02:55:35;;;;;;;7.82;2.50;;;;;;;13.71;65.98;102019.38;5083381;28;20028;-44
2023/04/02 02:58:09;;;;;;;5.40;2.28;;;;;;;13.60;66.61;102022.63;5089175;28;20028;-46
2023/04/02 03:00:38;;;;;;;6.32;2.47;;;;;;;13.63;66.72;102024.94;5094084;28;20119;-50
2023/04/02 03:03:10;;;;;;;6.90;2.33;;;;;;;13.48;67.16;102020.47;5092514;28;20016;-48
2023/04/02 03:05:38;;;;;;;6.50;2.00;;;;;;;13.58;66.82;102016.63;5093915;28;20024;-47
2023/04/02 03:08:09;;;;;;;10.52;2.70;;;;;;;13.60;66.50;102022.63;5094044;28;20059;-45
2023/04/02 03:10:52;;;;;;;7.20;2.28;;;;;;;13.55;67.00;102022.38;5094349;28;20016;-46
2023/04/02 03:13:37;;;;;;;6.97;2.33;;;;;;;13.44;67.38;102021.91;5114036;28;20048;-47
2023/04/02 03:16:16;;;;;;;4.83;1.97;;;;;;;13.38;67.76;102032.59;5093111;28;20028;-44
2023/04/02 03:19:13;;;;;;;6.65;1.90;;;;;;;13.27;68.11;102030.44;5093582;28;20272;-50
2023/04/02 03:22:11;;;;;;;6.97;2.03;;;;;;;13.42;68.04;102023.94;5093534;28;20032;-41
2023/04/02 03:24:51;;;;;;;9.57;2.63;;;;;;;13.40;67.93;102026.00;5093880;28;20403;-40
2023/04/02 03:27:23;;;;;;;6.07;2.70;;;;;;;13.49;67.41;102021.31;5093573;28;20144;-42
2023/04/02 03:30:15;;;;;;;5.40;2.67;;;;;;;13.37;67.55;102023.69;5093769;28;20152;-41
2023/04/02 03:32:43;;;;;;;7.53;2.80;;;;;;;13.33;67.74;102017.06;5093133;28;20035;-42
2023/04/02 03:36:01;;;;;;;7.93;2.53;;;;;;;13.38;67.84;102021.84;5093519;28;20553;-41
2023/04/02 03:38:29;;;;;;;10.98;2.63;;;;;;;13.40;67.48;102035.94;5056717;28;20036;-41
2023/04/02 03:41:22;;;;;;;7.25;2.35;;;;;;;13.35;67.83;102041.91;5089512;28;20108;-43
2023/04/02 03:44:23;;;;;;;4.93;2.42;;;;;;;13.30;68.40;102044.34;5072933;28;20074;-43
2023/04/02 03:46:58;;;;;;;7.88;2.75;;;;;;;13.38;68.49;102044.22;5097262;28;20507;-43
2023/04/02 03:49:47;;;;;;;6.40;2.58;;;;;;;13.27;68.65;102041.19;5093222;28;20024;-43
2023/04/02 03:52:28;;;;;;;9.40;2.65;;;;;;;13.14;69.39;102042.72;5091158;28;20077;-42
2023/04/02 03:54:57;;;;;;;5.90;2.47;;;;;;;13.09;69.77;102053.22;5092956;28;20167;-42
2023/04/02 03:57:46;;;;;;;5.57;2.53;;;;;;;13.18;69.59;102056.63;5092827;28;20028;-42
2023/04/02 04:00:23;;;;;;;8.00;2.83;;;;;;;13.12;69.99;102049.34;5093047;28;20025;-42
2023/04/02 04:02:53;;;;;;;7.93;2.67;;;;;;;13.15;69.75;102054.31;5093299;28;20028;-42
2023/04/02 04:05:28;;;;;;;5.20;2.40;;;;;;;13.18;69.59;102062.00;5092917;28;20024;-43
2023/04/02 04:08:01;;;;;;;5.88;2.45;;;;;;;13.08;69.94;102069.56;5092482;28;20075;-43
2023/04/02 04:10:29;;;;;;;4.85;2.40;;;;;;;13.08;70.24;102072.25;5077222;28;20029;-42
2023/04/02 04:13:26;;;;;;;9.30;2.60;;;;;;;13.13;70.18;102072.50;5072217;28;20052;-41
2023/04/02 04:16:04;;;;;;;6.75;2.35;;;;;;;13.26;69.46;102082.56;5048833;28;20044;-40
2023/04/02 04:18:55;;;;;;;9.75;3.00;;;;;;;13.10;70.43;102091.69;5072055;28;20028;-42
2023/04/02 04:21:58;;;;;;;11.57;2.75;;;;;;;13.01;70.98;102084.78;5072477;28;20111;-42
2023/04/02 04:24:23;;;;;;;7.53;2.55;;;;;;;13.15;70.70;102084.72;5070186;28;20044;-42
2023/04/02 04:26:55;;;;;;;8.18;3.17;;;;;;;13.12;70.82;102090.50;5072129;28;20035;-42
2023/04/02 04:29:50;;;;;;;5.60;2.65;;;;;;;13.20;70.91;102089.50;5072128;28;20376;-42
2023/04/02 04:32:30;;;;;;;6.20;2.75;;;;;;;13.15;71.62;102091.94;5072184;28;20048;-42
2023/04/02 04:35:14;;;;;;;8.10;3.05;;;;;;;13.13;72.22;102088.63;5073731;28;20035;-42
2023/04/02 04:37:48;;;;;;;8.90;2.72;;;;;;;13.14;72.10;102091.13;5094521;28;20539;-42
2023/04/02 04:40:28;;;;;;;6.82;2.65;;;;;;;13.43;71.14;102092.84;5090348;28;20476;-43
2023/04/02 04:43:01;;;;;;;7.30;2.50;;;;;;;13.36;71.67;102096.50;5094803;28;20020;-41
2023/04/02 04:45:38;;;;;;;8.27;2.80;;;;;;;13.29;72.34;102095.63;5105054;28;20361;-41
2023/04/02 04:48:10;;;;;;;7.78;2.45;;;;;;;13.43;71.75;102097.41;5071426;28;20197;-41
2023/04/02 04:50:55;;;;;;;8.27;2.38;;;;;;;13.39;71.76;102094.28;5096812;28;20036;-41
2023/04/02 04:53:27;;;;;;;7.53;2.28;;;;;;;13.41;72.15;102099.47;5089293;28;20039;-43
2023/04/02 04:55:56;;;;;;;7.28;2.38;;;;;;;13.51;72.23;102104.50;5071928;28;20108;-41
2023/04/02 04:59:02;;;;;;;9.02;2.78;;;;;;;13.50;72.08;102103.69;5079354;28;20430;-43
2023/04/02 05:01:39;;;;;;;5.35;2.63;;;;;;;13.40;72.47;102111.25;5029657;28;20509;-41
2023/04/02 05:04:25;;;;;;;8.93;2.53;;;;;;;13.44;72.13;102116.06;5029499;28;20069;-41
2023/04/02 05:06:54;;;;;;;7.55;1.85;;;;;;;13.39;72.90;102107.72;5071800;28;20032;-41
2023/04/02 05:09:39;;;;;;;6.03;2.20;;;;;;;13.38;72.99;102103.38;5091868;28;20028;-41
2023/04/02 05:12:17;;;;;;;3.47;2.00;;;;;;;13.39;72.57;102106.91;5109041;28;20036;-41
2023/04/02 05:15:31;;;;;;;6.30;2.25;;;;;;;13.48;72.04;102103.84;5112280;28;20039;-42
2023/04/02 05:18:12;;;;;;;7.50;2.38;;;;;;;13.48;71.99;102109.22;5111823;28;20030;-42
2023/04/02 05:21:06;;;;;;;4.90;1.90;;;;;;;13.61;71.33;102110.41;5112194;28;20019;-42
2023/04/02 05:24:05;;;;;;;9.00;1.92;;;;;;;13.54;71.41;102104.09;5111974;28;20081;-40
2023/04/02 05:26:38;;;;;;;5.13;2.33;;;;;;;13.46;71.29;102110.47;5112172;28;20077;-41
2023/04/02 05:29:23;;;;;;;6.85;2.60;;;;;;;13.55;71.08;102103.94;5110992;28;20376;-41
2023/04/02 05:31:55;;;;;;;6.07;2.45;;;;;;;13.51;71.36;102093.75;5102463;28;20126;-42
2023/04/02 05:34:29;;;;;;;6.97;2.10;;;;;;;13.57;71.62;102095.66;5091637;28;20496;-41
2023/04/02 05:36:55;;;;;;;6.93;1.65;;;;;;;13.61;71.29;102088.88;5091500;28;20028;-41
2023/04/02 05:39:24;;;;;;;6.47;2.03;;;;;;;13.63;71.30;102084.94;5090487;28;20493;-41
2023/04/02 05:42:13;;;;;;;7.55;2.40;;;;;;;13.62;71.74;102083.28;5091774;28;20716;-41
2023/04/02 05:44:57;;;;;;;9.68;2.30;;;;;;;13.63;72.66;102078.72;5100194;28;20479;-41
2023/04/02 05:47:28;;;;;;;5.20;2.03;;;;;;;13.51;73.63;102077.63;5102414;28;20020;-41
2023/04/02 05:50:04;;;;;;;6.78;2.45;;;;;;;13.51;73.44;102083.00;5111826;28;20571;-41
2023/04/02 05:52:36;;;;;;;8.90;2.50;;;;;;;13.28;75.37;102073.28;5083618;28;20032;-41
2023/04/02 05:55:31;;;;;;;7.35;2.53;;;;;;;13.41;74.77;102065.31;5091594;28;20043;-41
2023/04/02 05:58:13;;;;;;;4.93;2.03;;;;;;;13.51;74.80;102070.38;5086856;28;20141;-42
2023/04/02 06:00:39;;;;;;;5.68;2.53;;;;;;;13.46;75.78;102054.81;5093699;28;20020;-42
2023/04/02 06:03:31;;;;;;;5.45;2.20;;;;;;;13.40;76.14;102052.91;5092310;28;20132;-42
2023/04/02 06:06:04;;;;;;;5.38;2.03;;;;;;;13.12;77.50;102049.34;5093147;28;20123;-41
2023/04/02 06:08:37;;;;;;;6.53;2.40;;;;;;;13.15;77.71;102041.69;5094730;28;20115;-41
2023/04/02 06:11:11;;;;;;;6.68;1.98;;;;;;;13.29;77.16;102049.91;5094044;28;20495;-40
2023/04/02 06:13:37;;;;;;;5.90;2.08;;;;;;;13.36;77.08;102046.25;5090341;28;20063;-41
2023/04/02 06:16:04;;;;;;;3.78;1.85;;;;;;;13.38;76.85;102046.91;5094097;28;20074;-42
2023/04/02 06:18:34;;;;;;;9.80;2.47;;;;;;;13.24;77.16;102041.59;5093734;28;20022;-43
2023/04/02 06:21:04;;;;;;;2.80;1.85;;;;;;;13.18;77.05;102037.81;5094928;28;20050;-41
2023/04/02 06:23:31;;;;;;;3.10;1.20;;;;;;;13.20;76.47;102036.56;5093405;28;20073;-42
2023/04/02 06:26:25;;;;;;;4.25;1.52;;;;;;;12.94;77.59;102029.13;5094713;28;20028;-42
2023/04/02 06:28:52;;;;;;;4.68;1.30;;;;;;;13.08;77.47;102031.91;5088867;28;20032;-41
2023/04/02 06:31:35;;;;;;;4.28;1.50;;;;;;;13.23;76.96;102034.56;5094434;28;20427;-42
2023/04/02 06:34:05;;;;;;;6.50;1.65;;;;;;;13.16;77.45;102029.94;5074202;28;20025;-43
2023/04/02 06:36:32;;;;;;;7.85;1.60;;;;;;;13.08;77.86;102031.91;5073937;28;20124;-41
2023/04/02 06:39:07;;;;;;;2.45;1.50;;;;;;;12.96;77.82;102020.88;5094078;28;20020;-42
2023/04/02 06:41:33;;;;;;;4.77;0.97;;;;;;;13.14;77.03;102026.59;5093152;28;20028;-42
2023/04/02 06:44:11;;;;;;;1.42;0.70;;;;;;;13.14;76.92;102015.84;5094363;28;20024;-41
2023/04/02 06:47:04;;;;;;;3.33;0.90;;;;;;;13.10;76.91;102011.03;5092775;28;20533;-43
2023/04/02 06:49:40;;;;;;;4.13;1.33;;;;;;;13.11;77.15;102018.09;5092843;28;20028;-42
2023/04/02 06:52:20;;;;;;;3.75;1.02;;;;;;;13.14;77.19;102015.00;5089177;28;20438;-43
2023/04/02 06:54:47;;;;;;;5.15;1.40;;;;;;;13.05;77.51;102000.91;5094119;28;20494;-44
2023/04/02 06:57:13;;;;;;;2.65;1.00;;;;;;;13.09;77.50;102001.31;5092570;28;20464;-43
2023/04/02 06:59:39;;;;;;;3.03;1.15;;;;;;;13.03;77.92;102002.09;5093954;28;20024;-41
2023/04/02 07:02:24;;;;;;;2.88;1.20;;;;;;;13.12;77.77;101992.88;5087938;28;20118;-41
2023/04/02 07:04:50;;;;;;;7.03;1.30;;;;;;;13.00;78.36;101989.91;5087546;28;20430;-42
2023/04/02 07:07:17;;;;;;;1.05;0.75;;;;;;;13.10;78.46;101992.22;5089114;28;20044;-42
2023/04/02 07:09:43;;;;;;;3.90;1.50;;;;;;;13.04;79.04;101995.69;5093794;28;20074;-41
2023/04/02 07:12:13;;;;;;;3.78;1.00;;;;;;;13.02;79.49;101993.22;5091991;28;20028;-42
2023/04/02 07:14:40;;;;;;;1.88;1.10;;;;;;;12.97;79.48;101989.44;5090643;28;20075;-44
2023/04/02 07:17:06;;;;;;;2.05;0.77;;;;;;;12.88;79.92;101989.59;5091572;28;20388;-43
2023/04/02 07:19:32;;;;;;;7.10;1.10;;;;;;;13.04;79.59;101993.00;5092027;28;20451;-42
2023/04/02 07:21:58;;;;;;;6.45;1.60;;;;;;;12.84;80.50;101996.38;5093786;28;20472;-42
2023/04/02 07:24:25;;;;;;;4.97;1.60;;;;;;;12.89;80.20;101991.25;5090808;28;20434;-42
2023/04/02 07:26:51;;;;;;;2.45;1.23;;;;;;;12.85;80.96;101984.59;5090937;28;20479;-42
2023/04/02 07:29:18;;;;;;;2.38;1.00;;;;;;;12.98;80.72;101989.25;5093570;28;20111;-43
2023/04/02 07:31:44;;;;;;;1.80;1.00;;;;;;;12.90;81.38;101982.16;5090904;28;20461;-42
2023/04/02 07:34:11;;;;;;;3.15;1.15;;;;;;;12.96;81.19;101977.88;5093508;28;20024;-42
2023/04/02 07:36:37;;;;;;;2.30;1.10;;;;;;;12.99;81.32;101979.31;5104326;28;20028;-42
2023/04/02 07:39:03;;;;;;;2.00;0.80;;;;;;;12.76;82.46;101976.84;5113864;28;20103;-42
2023/04/02 07:41:30;;;;;;;1.67;0.70;;;;;;;12.87;81.69;101985.22;5095746;28;20148;-42
2023/04/02 07:43:56;;;;;;;2.28;0.90;;;;;;;12.68;83.60;101981.34;5092408;28;20031;-42
2023/04/02 07:46:23;;;;;;;2.13;0.85;;;;;;;12.75;83.24;101978.69;5088359;28;20054;-42
2023/04/02 07:48:49;;;;;;;2.35;0.80;;;;;;;12.72;83.97;101989.03;5091298;28;20060;-42
2023/04/02 07:51:24;;;;;;;1.83;0.80;;;;;;;12.62;83.81;101989.34;5088108;28;20517;-42
2023/04/02 07:53:54;;;;;;;2.08;1.10;;;;;;;12.71;83.90;101993.53;5093110;28;20031;-41
2023/04/02 07:56:21;;;;;;;1.80;0.75;;;;;;;12.69;84.04;101988.38;5090118;28;20036;-42
2023/04/02 07:58:48;;;;;;;2.92;1.20;;;;;;;12.77;83.92;101994.63;5089799;28;20482;-42
2023/04/02 08:01:24;;;;;;;1.38;1.00;;;;;;;12.67;85.17;101994.97;5090354;28;20366;-44
2023/04/02 08:03:51;;;;;;;1.90;1.20;;;;;;;12.76;84.71;101988.41;5093252;28;20028;-42
2023/04/02 08:06:17;;;;;;;1.90;0.75;;;;;;;12.83;85.26;101994.72;5091197;28;20503;-43
2023/04/02 08:08:44;;;;;;;0.57;0.55;;;;;;;12.90;85.13;101992.91;5092701;28;20140;-43
2023/04/02 08:11:11;;;;;;;1.75;1.00;;;;;;;12.78;85.53;101999.81;5091234;28;21931;-43
2023/04/02 08:13:37;;;;;;;1.40;1.30;;;;;;;12.78;85.78;101989.06;5092436;28;20051;-44
2023/04/02 08:16:05;;;;;;;2.60;1.17;;;;;;;12.78;85.97;101993.63;5091008;28;20495;-42
2023/04/02 08:18:32;;;;;;;2.83;1.48;;;;;;;12.85;85.79;101987.28;5088745;28;20024;-42
2023/04/02 08:20:59;;;;;;;3.63;1.42;;;;;;;12.81;86.26;101990.53;5092734;28;20054;-42
2023/04/02 08:23:26;;;;;;;2.30;1.30;;;;;;;12.89;85.92;101990.41;5089782;28;20403;-43
2023/04/02 08:25:52;;;;;;;2.85;1.50;;;;;;;12.82;86.06;101995.72;5092344;28;20024;-42
2023/04/02 08:28:20;;;;;;;1.63;1.25;;;;;;;12.86;85.95;101986.25;5087708;28;20035;-42
2023/04/02 08:30:50;;;;;;;3.50;1.50;;;;;;;12.99;85.48;101988.22;5092744;28;20059;-43
2023/04/02 08:33:16;;;;;;;2.88;1.35;;;;;;;13.13;84.86;101992.69;5089616;28;20081;-44
2023/04/02 08:35:45;;;;;;;3.08;1.70;;;;;;;12.98;85.30;101980.34;5092282;28;20028;-43
2023/04/02 08:38:20;;;;;;;5.00;1.88;;;;;;;13.01;85.57;101982.66;5089941;28;20020;-43
2023/04/02 08:40:50;;;;;;;;;;;;;;;12.92;81.97;101980.09;5091608;28;20055;-42
2023/04/02 08:43:36;;;;;;;1.38;0.40;;;;;;;12.88;80.49;101978.84;5092572;28;19912;-43
2023/04/02 08:46:46;;;;;;;0.80;0.38;;;;;;;12.63;80.17;101978.38;5091252;28;20032;-45
2023/04/02 08:49:16;;;;;;;0.22;0.20;;;;;;;12.62;76.38;101978.59;5081881;28;20384;-42
2023/04/02 08:51:45;;;;;;;1.95;0.20;;;;;;;12.42;75.61;101976.50;5083763;28;20020;-46
2023/04/02 08:54:24;;;;;;;0.77;0.20;;;;;;;12.12;75.88;101978.47;5092278;28;20384;-42
2023/04/02 08:57:18;;;;;;;0.43;0.20;;;;;;;11.87;76.58;101977.09;5090593;28;20031;-41
2023/04/02 08:59:45;;;;;;;1.48;0.30;;;;;;;11.84;76.86;101970.28;5091970;28;20024;-41
2023/04/02 09:02:25;;;;;;;0.65;0.35;;;;;;;11.76;76.70;101969.50;5090616;28;20486;-41
2023/04/02 09:04:51;;;;;;;0.70;0.30;;;;;;;11.53;77.16;101958.88;5092095;28;20055;-41
2023/04/02 09:07:18;;;;;;;1.33;0.50;;;;;;;11.64;76.69;101959.22;5090424;28;20036;-41
2023/04/02 09:09:47;;;;;;;2.70;0.47;;;;;;;11.49;77.17;101957.56;5091817;28;20480;-41
2023/04/02 09:12:27;;;;;;;2.30;0.60;;;;;;;11.51;75.44;101958.22;5090345;28;20384;-41
2023/04/02 09:15:25;;;;;;;2.65;0.60;;;;;;;11.47;74.50;101967.66;5091961;28;20069;-41
2023/04/02 09:18:13;;;;;;;4.68;0.80;;;;;;;11.47;73.31;101959.63;5087955;28;20036;-42
2023/04/02 09:20:40;;;;;;;4.18;1.00;;;;;;;11.31;73.98;101957.94;5091679;28;20499;-42
2023/04/02 09:23:18;;;;;;;4.82;0.70;;;;;;;11.28;74.42;101961.81;5089968;28;20115;-41
2023/04/02 09:25:48;;;;;;;2.70;0.80;;;;;;;11.10;75.33;101958.63;5091997;28;20062;-41
2023/04/02 09:28:15;;;;;;;2.78;1.00;;;;;;;11.18;75.29;101965.78;5090271;28;20059;-41
2023/04/02 09:30:47;;;;;;;2.38;0.70;;;;;;;11.17;75.82;101962.28;5090073;28;20051;-41
2023/04/02 09:33:13;;;;;;;2.85;0.93;;;;;;;11.17;76.44;101962.28;5088129;28;20110;-41
2023/04/02 09:35:48;;;;;;;4.40;1.10;;;;;;;11.32;76.04;101959.59;5092439;28;20028;-42
2023/04/02 09:38:20;;;;;;;4.88;1.10;;;;;;;11.36;75.39;101963.59;5095055;28;20073;-41
2023/04/02 09:41:19;;;;;;;8.55;1.33;;;;;;;11.24;76.15;101957.00;5094041;28;20036;-41
2023/04/02 09:43:46;;;;;;;3.17;1.30;;;;;;;11.15;76.78;101956.25;5096005;28;20081;-41
2023/04/02 09:46:12;;;;;;;4.72;1.20;;;;;;;11.09;77.39;101954.28;5094159;28;20016;-41
2023/04/02 09:48:56;;;;;;;5.05;1.50;;;;;;;11.16;77.05;101955.25;5093561;28;20055;-42
2023/04/02 09:51:40;;;;;;;3.38;1.50;;;;;;;11.11;77.03;101949.59;5092305;28;20032;-42
2023/04/02 09:54:13;;;;;;;6.28;1.52;;;;;;;11.17;77.08;101956.91;5075483;28;20032;-41
2023/04/02 09:56:40;;;;;;;5.55;1.00;;;;;;;11.09;77.37;101954.28;5080902;28;20064;-42
2023/04/02 09:59:12;;;;;;;6.65;1.58;;;;;;;11.03;77.81;101949.66;5089387;28;20536;-41
2023/04/02 10:01:48;;;;;;;4.32;1.13;;;;;;;10.95;77.12;101955.13;5083265;28;20036;-41
2023/04/02 10:04:29;;;;;;;4.13;1.20;;;;;;;10.80;77.57;101949.72;5091058;28;20012;-41
2023/04/02 10:06:57;;;;;;;7.35;1.60;;;;;;;10.82;77.06;101948.50;5075090;28;20064;-41
2023/04/02 10:09:31;;;;;;;8.68;1.52;;;;;;;10.74;77.58;101943.22;5079138;28;20027;-41
2023/04/02 10:12:01;;;;;;;6.28;1.83;;;;;;;10.66;78.50;101939.78;5095284;28;20028;-42
2023/04/02 10:14:35;;;;;;;9.18;1.80;;;;;;;10.84;77.73;101941.13;5092667;28;20070;-41
2023/04/02 10:17:24;;;;;;;6.90;1.20;;;;;;;10.70;77.63;101938.41;5094153;28;20024;-41
2023/04/02 10:20:00;;;;;;;5.32;1.67;;;;;;;10.68;77.95;101935.91;5090800;28;20470;-41
2023/04/02 10:22:29;;;;;;;3.55;1.35;;;;;;;10.73;77.37;101933.53;5095212;28;20399;-42
2023/04/02 10:24:58;;;;;;;5.95;1.23;;;;;;;10.72;76.74;101931.88;5093076;28;20096;-42
2023/04/02 10:27:43;;;;;;;8.88;1.73;;;;;;;10.72;75.56;101929.19;5094612;28;20049;-43
2023/04/02 10:30:44;;;;;;;10.45;2.05;;;;;;;10.88;74.63;101933.56;5089007;28;20036;-41
2023/04/02 10:33:18;;;;;;;5.80;1.67;;;;;;;10.82;74.22;101935.09;5093160;28;20032;-43
2023/04/02 10:36:01;;;;;;;6.35;1.40;;;;;;;10.80;74.62;101925.59;5083269;28;20035;-41
2023/04/02 10:38:38;;;;;;;9.68;1.63;;;;;;;10.89;73.32;101929.06;5090908;28;20035;-41
2023/04/02 10:41:28;;;;;;;3.40;1.45;;;;;;;10.90;73.45;101926.19;5091165;28;20468;-41
2023/04/02 10:44:08;;;;;;;10.60;1.90;;;;;;;10.88;73.44;101922.84;5086675;28;20028;-41
2023/04/02 10:46:58;;;;;;;7.60;1.45;;;;;;;10.99;72.78;101917.06;5093834;28;20423;-42
2023/04/02 10:49:27;;;;;;;4.95;1.58;;;;;;;10.88;73.59;101917.47;5094725;28;20028;-41
2023/04/02 10:52:15;;;;;;;6.28;1.63;;;;;;;10.91;73.42;101916.31;5094561;28;20027;-42
2023/04/02 10:54:59;;;;;;;6.57;1.40;;;;;;;10.95;73.52;101915.75;5079699;28;20116;-41
2023/04/02 10:57:40;;;;;;;4.60;1.67;;;;;;;11.05;72.45;101921.69;5093945;28;20074;-42
2023/04/02 11:00:15;;;;;;;5.13;1.40;;;;;;;10.91;72.94;101919.81;5094200;28;20028;-44
2023/04/02 11:03:13;;;;;;;6.85;1.55;;;;;;;11.19;72.23;101921.88;5094022;28;20028;-42
2023/04/02 11:05:43;;;;;;;6.13;1.65;;;;;;;11.08;72.60;101913.28;5085748;28;20111;-44
2023/04/02 11:08:22;;;;;;;8.82;1.75;;;;;;;11.23;71.68;101907.09;5093649;28;20036;-41
2023/04/02 11:11:09;;;;;;;8.68;1.92;;;;;;;11.18;70.68;101901.47;5084490;28;20028;-42
2023/04/02 11:13:45;;;;;;;7.72;1.45;;;;;;;10.97;71.01;101905.69;5073050;28;20056;-41
2023/04/02 11:16:15;;;;;;;4.63;1.30;;;;;;;10.83;70.44;101907.34;5086564;28;20051;-41
2023/04/02 11:18:43;;;;;;;6.30;1.25;;;;;;;10.96;70.13;101900.53;5073977;28;20438;-41
2023/04/02 11:21:58;;;;;;;5.00;1.60;;;;;;;11.13;69.22;101898.50;5089944;28;20028;-41
2023/04/02 11:24:33;;;;;;;2.55;1.02;;;;;;;10.95;69.82;101896.19;5082548;28;20507;-42
2023/04/02 11:27:14;;;;;;;8.07;1.65;;;;;;;10.71;70.34;101911.44;5093543;28;20465;-41
2023/04/02 11:29:48;;;;;;;7.20;1.65;;;;;;;10.87;69.64;101902.44;5083073;28;20751;-42
2023/04/02 11:32:20;;;;;;;9.35;1.65;;;;;;;10.90;69.62;101907.44;5086265;28;20032;-42
2023/04/02 11:34:46;;;;;;;5.72;1.90;;;;;;;10.84;69.32;101909.00;5091628;28;20561;-41
2023/04/02 11:37:38;;;;;;;8.40;1.83;;;;;;;10.63;69.83;101916.88;5093342;28;20063;-41
2023/04/02 11:40:10;;;;;;;5.70;2.28;;;;;;;10.36;70.69;101918.25;5086277;28;20039;-41
2023/04/02 11:42:44;;;;;;;6.63;1.65;;;;;;;10.28;71.00;101912.97;5091216;28;20036;-41
2023/04/02 11:45:22;;;;;;;9.13;2.10;;;;;;;10.28;70.22;101919.16;5088217;28;20366;-41
2023/04/02 11:48:02;;;;;;;9.18;1.95;;;;;;;10.19;69.80;101914.81;5091114;28;20032;-46
2023/04/02 11:50:39;;;;;;;6.32;1.98;;;;;;;10.17;69.79;101913.34;5093133;28;20052;-46
2023/04/02 11:53:34;;;;;;;6.82;1.70;;;;;;;10.26;69.21;101905.09;5091711;28;20036;-46
2023/04/02 11:56:05;;;;;;;7.95;2.20;;;;;;;10.10;70.02;101905.16;5093049;28;20024;-46
2023/04/02 11:58:52;;;;;;;7.38;1.77;;;;;;;10.02;70.45;101898.03;5090659;28;20398;-46
2023/04/02 12:01:54;;;;;;;7.95;1.70;;;;;;;9.98;69.48;101894.03;5093004;28;20028;-46
2023/04/02 12:04:41;;;;;;;10.93;2.20;;;;;;;9.99;69.48;101902.91;5089897;28;20054;-46
2023/04/02 12:07:38;;;;;;;9.88;2.30;;;;;;;9.95;69.41;101904.28;5088387;28;20132;-46
2023/04/02 12:10:05;;;;;;;;;;;;;;;9.94;69.56;101899.94;5093146;28;20035;-45